Terminal Aerodrome Forecast
Issued by NWS Indianapolis, IN

Home | Current Version | Previous Version | Text Only | Print | Product List | Glossary On
Versions: 1 2 3 4 5 6 7 8 9 10 11 12 13 14 15 16 17 18 19 20 21 22 23 24 25 26 27 28 29
000
FTUS43 KIND 011120
TAFIND
TAF
KIND 011120Z 0112/0218 25006KT P6SM BKN100 OVC250
     FM011800 22008KT P6SM VCTS BKN025CB
     FM020300 30007KT P6SM SCT040
     FM021000 31006KT 5SM BR OVC009=

USA.gov is the U.S. government's official web portal to all federal, state and local government web resources and services.